KLRD/LRD METAR and TAF weather

Enter ICAO airport designator
Station Type Date Time Source
KLRD METAR 2021/09/28 03:56 UTC NOAA

KLRD 280356Z 13011KT 10SM CLR 28/23 A2992 RMK AO2 SLP127 T02830228


Station Type Date Time Source
KLRD Decoded METAR 2021/09/28 03:56 UTC NOAA

Laredo, Laredo International Airport, TX, United States (KLRD) 27-32-37N 099-27-41W
Sep 27, 2021 - 11:56 PM EDT / 2021.09.28 0356 UTC
Wind: from the SE (130 degrees) at 13 MPH (11 KT):0
Visibility: 10 mile(s):0
Sky conditions: clear
Temperature: 82.9 F (28.3 C)
Dew Point: 73.0 F (22.8 C)
Relative Humidity: 72%
Pressure (altimeter): 29.92 in. Hg (1013 hPa)
ob: KLRD 280356Z 13011KT 10SM CLR 28/23 A2992 RMK AO2 SLP127 T02830228
cycle: 4

Station Type Date Time Source
KLRD TAF 2021/09/27 18:36 UTC NOAA

TAF KLRD 271733Z 2718/2818 16008KT P6SM SCT050
FM280000 14008KT P6SM BKN250

Example: see airport list